sensor_id;sensor_type;location;lat;lon;timestamp;P1;durP1;ratioP1;P2;durP2;ratioP2
72791;SDS011;60907;53.268;8.764;2023-02-01T00:01:38;15.07;;;2.30;;
72791;SDS011;60907;53.268;8.764;2023-02-01T00:04:04;13.03;;;1.73;;
72791;SDS011;60907;53.268;8.764;2023-02-01T00:06:29;14.25;;;2.20;;
72791;SDS011;60907;53.268;8.764;2023-02-01T00:08:55;13.23;;;1.88;;
72791;SDS011;60907;53.268;8.764;2023-02-01T00:11:20;18.48;;;2.45;;
72791;SDS011;60907;53.268;8.764;2023-02-01T00:13:46;17.35;;;2.58;;
72791;SDS011;60907;53.268;8.764;2023-02-01T00:16:19;20.25;;;1.95;;
72791;SDS011;60907;53.268;8.764;2023-02-01T00:18:46;20.35;;;2.15;;
72791;SDS011;60907;53.268;8.764;2023-02-01T00:21:13;13.27;;;2.40;;
72791;SDS011;60907;53.268;8.764;2023-02-01T00:23:40;14.52;;;1.65;;
72791;SDS011;60907;53.268;8.764;2023-02-01T00:26:07;19.77;;;2.33;;
72791;SDS011;60907;53.268;8.764;2023-02-01T00:28:36;10.70;;;1.80;;
72791;SDS011;60907;53.268;8.764;2023-02-01T00:31:02;19.02;;;2.10;;
72791;SDS011;60907;53.268;8.764;2023-02-01T00:33:29;8.95;;;1.73;;
72791;SDS011;60907;53.268;8.764;2023-02-01T00:35:59;19.23;;;2.50;;
72791;SDS011;60907;53.268;8.764;2023-02-01T00:38:31;14.20;;;2.33;;
72791;SDS011;60907;53.268;8.764;2023-02-01T00:41:02;9.20;;;1.83;;
72791;SDS011;60907;53.268;8.764;2023-02-01T00:43:30;12.32;;;2.65;;
72791;SDS011;60907;53.268;8.764;2023-02-01T00:45:56;8.13;;;1.50;;
72791;SDS011;60907;53.268;8.764;2023-02-01T00:48:21;15.23;;;2.27;;
72791;SDS011;60907;53.268;8.764;2023-02-01T00:50:47;18.73;;;2.45;;
72791;SDS011;60907;53.268;8.764;2023-02-01T00:53:12;14.25;;;2.20;;
72791;SDS011;60907;53.268;8.764;2023-02-01T00:55:38;9.15;;;1.42;;
72791;SDS011;60907;53.268;8.764;2023-02-01T00:58:03;22.52;;;3.03;;
72791;SDS011;60907;53.268;8.764;2023-02-01T01:00:34;20.60;;;1.85;;
72791;SDS011;60907;53.268;8.764;2023-02-01T01:02:59;20.73;;;2.40;;
72791;SDS011;60907;53.268;8.764;2023-02-01T01:05:24;15.93;;;2.60;;
72791;SDS011;60907;53.268;8.764;2023-02-01T01:07:52;17.70;;;2.25;;
72791;SDS011;60907;53.268;8.764;2023-02-01T01:10:17;15.95;;;1.67;;
72791;SDS011;60907;53.268;8.764;2023-02-01T01:12:43;18.00;;;2.13;;
72791;SDS011;60907;53.268;8.764;2023-02-01T01:15:08;18.03;;;2.20;;
72791;SDS011;60907;53.268;8.764;2023-02-01T01:17:34;14.73;;;1.90;;
72791;SDS011;60907;53.268;8.764;2023-02-01T01:19:59;15.17;;;2.07;;
72791;SDS011;60907;53.268;8.764;2023-02-01T01:22:25;21.27;;;2.67;;
72791;SDS011;60907;53.268;8.764;2023-02-01T01:24:50;10.80;;;2.53;;
72791;SDS011;60907;53.268;8.764;2023-02-01T01:27:15;13.07;;;2.00;;
72791;SDS011;60907;53.268;8.764;2023-02-01T01:29:47;14.15;;;2.20;;
72791;SDS011;60907;53.268;8.764;2023-02-01T01:32:13;14.05;;;2.70;;
72791;SDS011;60907;53.268;8.764;2023-02-01T01:34:38;12.23;;;2.03;;
72791;SDS011;60907;53.268;8.764;2023-02-01T01:37:04;13.57;;;2.03;;
72791;SDS011;60907;53.268;8.764;2023-02-01T01:39:29;19.40;;;1.97;;
72791;SDS011;60907;53.268;8.764;2023-02-01T01:41:54;19.38;;;2.88;;
72791;SDS011;60907;53.268;8.764;2023-02-01T01:47:23;15.98;;;2.25;;
72791;SDS011;60907;53.268;8.764;2023-02-01T01:52:15;13.60;;;2.67;;
72791;SDS011;60907;53.268;8.764;2023-02-01T01:54:42;15.57;;;2.75;;
72791;SDS011;60907;53.268;8.764;2023-02-01T01:57:14;7.88;;;1.80;;
72791;SDS011;60907;53.268;8.764;2023-02-01T01:59:46;15.90;;;2.17;;
72791;SDS011;60907;53.268;8.764;2023-02-01T02:02:14;12.65;;;2.08;;
72791;SDS011;60907;53.268;8.764;2023-02-01T02:04:39;12.43;;;2.25;;
72791;SDS011;60907;53.268;8.764;2023-02-01T02:07:14;10.73;;;1.73;;
72791;SDS011;60907;53.268;8.764;2023-02-01T02:09:43;10.18;;;1.85;;
72791;SDS011;60907;53.268;8.764;2023-02-01T02:12:08;18.02;;;3.00;;
72791;SDS011;60907;53.268;8.764;2023-02-01T02:14:34;14.20;;;2.38;;
72791;SDS011;60907;53.268;8.764;2023-02-01T02:47:53;9.68;;;1.77;;
72791;SDS011;60907;53.268;8.764;2023-02-01T02:50:29;16.67;;;2.25;;
72791;SDS011;60907;53.268;8.764;2023-02-01T02:53:20;7.45;;;1.70;;
72791;SDS011;60907;53.268;8.764;2023-02-01T02:56:07;10.82;;;1.75;;
72791;SDS011;60907;53.268;8.764;2023-02-01T02:58:52;9.63;;;1.73;;
72791;SDS011;60907;53.268;8.764;2023-02-01T03:01:38;10.93;;;1.60;;
72791;SDS011;60907;53.268;8.764;2023-02-01T03:04:23;7.03;;;1.75;;
72791;SDS011;60907;53.268;8.764;2023-02-01T03:06:51;8.45;;;1.30;;
72791;SDS011;60907;53.268;8.764;2023-02-01T03:09:38;9.07;;;1.60;;
72791;SDS011;60907;53.268;8.764;2023-02-01T03:12:07;6.18;;;1.00;;
72791;SDS011;60907;53.268;8.764;2023-02-01T03:15:08;7.15;;;1.98;;
72791;SDS011;60907;53.268;8.764;2023-02-01T03:17:38;6.82;;;1.23;;
72791;SDS011;60907;53.268;8.764;2023-02-01T03:20:05;6.28;;;0.85;;
72791;SDS011;60907;53.268;8.764;2023-02-01T03:22:31;5.22;;;0.77;;
72791;SDS011;60907;53.268;8.764;2023-02-01T03:30:12;7.10;;;0.45;;
72791;SDS011;60907;53.268;8.764;2023-02-01T03:32:43;4.00;;;0.40;;
72791;SDS011;60907;53.268;8.764;2023-02-01T03:41:10;5.60;;;0.88;;
72791;SDS011;60907;53.268;8.764;2023-02-01T03:43:43;5.68;;;0.80;;
72791;SDS011;60907;53.268;8.764;2023-02-01T03:46:12;9.07;;;1.08;;
72791;SDS011;60907;53.268;8.764;2023-02-01T03:48:43;6.90;;;1.30;;
72791;SDS011;60907;53.268;8.764;2023-02-01T03:51:09;5.20;;;1.63;;
72791;SDS011;60907;53.268;8.764;2023-02-01T03:53:35;3.03;;;1.10;;
72791;SDS011;60907;53.268;8.764;2023-02-01T03:56:02;6.95;;;1.17;;
72791;SDS011;60907;53.268;8.764;2023-02-01T03:58:27;4.43;;;1.10;;
72791;SDS011;60907;53.268;8.764;2023-02-01T04:00:54;6.25;;;1.35;;
72791;SDS011;60907;53.268;8.764;2023-02-01T04:03:21;9.02;;;1.50;;
72791;SDS011;60907;53.268;8.764;2023-02-01T04:05:50;10.05;;;1.60;;
72791;SDS011;60907;53.268;8.764;2023-02-01T04:08:16;11.68;;;1.52;;
72791;SDS011;60907;53.268;8.764;2023-02-01T04:10:43;7.20;;;1.25;;
72791;SDS011;60907;53.268;8.764;2023-02-01T04:13:09;10.10;;;1.42;;
72791;SDS011;60907;53.268;8.764;2023-02-01T04:15:34;4.22;;;0.82;;
72791;SDS011;60907;53.268;8.764;2023-02-01T04:18:00;5.18;;;1.30;;
72791;SDS011;60907;53.268;8.764;2023-02-01T04:20:25;8.30;;;1.33;;
72791;SDS011;60907;53.268;8.764;2023-02-01T04:22:51;4.82;;;1.20;;
72791;SDS011;60907;53.268;8.764;2023-02-01T04:25:16;8.20;;;0.85;;
72791;SDS011;60907;53.268;8.764;2023-02-01T04:27:42;2.80;;;0.60;;
72791;SDS011;60907;53.268;8.764;2023-02-01T04:30:08;4.95;;;0.70;;
72791;SDS011;60907;53.268;8.764;2023-02-01T04:32:35;6.10;;;0.90;;
72791;SDS011;60907;53.268;8.764;2023-02-01T04:35:01;3.33;;;1.38;;
72791;SDS011;60907;53.268;8.764;2023-02-01T04:37:27;5.43;;;0.63;;
72791;SDS011;60907;53.268;8.764;2023-02-01T04:39:53;4.57;;;0.80;;
72791;SDS011;60907;53.268;8.764;2023-02-01T04:42:19;5.82;;;0.93;;
72791;SDS011;60907;53.268;8.764;2023-02-01T04:44:45;7.32;;;1.10;;
72791;SDS011;60907;53.268;8.764;2023-02-01T04:47:10;12.35;;;2.05;;
72791;SDS011;60907;53.268;8.764;2023-02-01T04:49:35;10.27;;;2.28;;
72791;SDS011;60907;53.268;8.764;2023-02-01T04:52:01;10.68;;;2.05;;
72791;SDS011;60907;53.268;8.764;2023-02-01T04:54:26;13.55;;;2.33;;
72791;SDS011;60907;53.268;8.764;2023-02-01T04:56:51;11.80;;;2.35;;
72791;SDS011;60907;53.268;8.764;2023-02-01T04:59:17;8.85;;;1.85;;
72791;SDS011;60907;53.268;8.764;2023-02-01T05:01:42;11.65;;;2.25;;
72791;SDS011;60907;53.268;8.764;2023-02-01T05:04:08;13.30;;;2.25;;
72791;SDS011;60907;53.268;8.764;2023-02-01T05:06:33;10.00;;;1.70;;
72791;SDS011;60907;53.268;8.764;2023-02-01T05:08:58;11.20;;;2.00;;
72791;SDS011;60907;53.268;8.764;2023-02-01T05:11:24;9.90;;;1.85;;
72791;SDS011;60907;53.268;8.764;2023-02-01T05:14:08;16.35;;;2.45;;
72791;SDS011;60907;53.268;8.764;2023-02-01T05:16:33;15.25;;;2.50;;
72791;SDS011;60907;53.268;8.764;2023-02-01T05:18:59;13.55;;;2.20;;
72791;SDS011;60907;53.268;8.764;2023-02-01T05:21:25;17.90;;;2.55;;
72791;SDS011;60907;53.268;8.764;2023-02-01T05:23:50;7.97;;;1.90;;
72791;SDS011;60907;53.268;8.764;2023-02-01T05:26:34;11.45;;;2.15;;
72791;SDS011;60907;53.268;8.764;2023-02-01T05:29:00;7.78;;;1.63;;
72791;SDS011;60907;53.268;8.764;2023-02-01T05:31:26;9.40;;;1.42;;
72791;SDS011;60907;53.268;8.764;2023-02-01T05:33:51;7.63;;;1.58;;
72791;SDS011;60907;53.268;8.764;2023-02-01T05:36:17;8.98;;;1.92;;
72791;SDS011;60907;53.268;8.764;2023-02-01T05:38:42;7.40;;;1.20;;
72791;SDS011;60907;53.268;8.764;2023-02-01T05:41:08;6.43;;;1.33;;
72791;SDS011;60907;53.268;8.764;2023-02-01T05:43:33;10.18;;;2.38;;
72791;SDS011;60907;53.268;8.764;2023-02-01T05:45:59;10.10;;;1.35;;
72791;SDS011;60907;53.268;8.764;2023-02-01T05:48:24;12.23;;;1.83;;
72791;SDS011;60907;53.268;8.764;2023-02-01T05:50:49;6.80;;;1.45;;
72791;SDS011;60907;53.268;8.764;2023-02-01T05:53:15;8.27;;;1.35;;
72791;SDS011;60907;53.268;8.764;2023-02-01T05:55:41;11.50;;;1.75;;
72791;SDS011;60907;53.268;8.764;2023-02-01T05:58:06;9.13;;;2.53;;
72791;SDS011;60907;53.268;8.764;2023-02-01T06:00:32;12.57;;;2.28;;
72791;SDS011;60907;53.268;8.764;2023-02-01T06:02:57;7.38;;;1.60;;
72791;SDS011;60907;53.268;8.764;2023-02-01T06:05:23;7.63;;;1.90;;
72791;SDS011;60907;53.268;8.764;2023-02-01T06:07:48;8.40;;;1.77;;
72791;SDS011;60907;53.268;8.764;2023-02-01T06:10:15;8.60;;;1.88;;
72791;SDS011;60907;53.268;8.764;2023-02-01T06:12:43;15.57;;;1.92;;
72791;SDS011;60907;53.268;8.764;2023-02-01T06:15:10;12.48;;;1.90;;
72791;SDS011;60907;53.268;8.764;2023-02-01T06:17:36;8.98;;;1.77;;
72791;SDS011;60907;53.268;8.764;2023-02-01T06:20:02;7.63;;;1.55;;
72791;SDS011;60907;53.268;8.764;2023-02-01T06:22:28;10.45;;;1.63;;
72791;SDS011;60907;53.268;8.764;2023-02-01T06:24:53;11.10;;;1.65;;
72791;SDS011;60907;53.268;8.764;2023-02-01T06:27:19;7.85;;;1.70;;
72791;SDS011;60907;53.268;8.764;2023-02-01T06:29:44;12.43;;;2.10;;
72791;SDS011;60907;53.268;8.764;2023-02-01T06:32:10;15.82;;;3.17;;
72791;SDS011;60907;53.268;8.764;2023-02-01T06:34:35;12.43;;;2.40;;
72791;SDS011;60907;53.268;8.764;2023-02-01T06:37:02;8.57;;;1.73;;
72791;SDS011;60907;53.268;8.764;2023-02-01T06:39:27;12.65;;;2.38;;
72791;SDS011;60907;53.268;8.764;2023-02-01T06:41:53;14.85;;;1.80;;
72791;SDS011;60907;53.268;8.764;2023-02-01T06:44:18;13.90;;;2.15;;
72791;SDS011;60907;53.268;8.764;2023-02-01T06:46:44;14.00;;;2.28;;
72791;SDS011;60907;53.268;8.764;2023-02-01T06:49:09;11.00;;;1.90;;
72791;SDS011;60907;53.268;8.764;2023-02-01T06:51:35;15.40;;;2.05;;
72791;SDS011;60907;53.268;8.764;2023-02-01T06:54:00;15.25;;;2.50;;
72791;SDS011;60907;53.268;8.764;2023-02-01T06:56:26;12.25;;;1.88;;
72791;SDS011;60907;53.268;8.764;2023-02-01T06:58:52;14.52;;;2.58;;
72791;SDS011;60907;53.268;8.764;2023-02-01T07:01:17;13.75;;;2.00;;
72791;SDS011;60907;53.268;8.764;2023-02-01T07:03:46;14.38;;;1.95;;
72791;SDS011;60907;53.268;8.764;2023-02-01T07:06:13;9.23;;;2.10;;
72791;SDS011;60907;53.268;8.764;2023-02-01T07:08:39;9.88;;;1.63;;
72791;SDS011;60907;53.268;8.764;2023-02-01T07:11:05;9.38;;;1.42;;
72791;SDS011;60907;53.268;8.764;2023-02-01T07:13:34;12.27;;;1.75;;
72791;SDS011;60907;53.268;8.764;2023-02-01T07:16:04;11.82;;;2.17;;
72791;SDS011;60907;53.268;8.764;2023-02-01T07:18:31;15.20;;;2.70;;
72791;SDS011;60907;53.268;8.764;2023-02-01T07:20:57;9.60;;;1.95;;
72791;SDS011;60907;53.268;8.764;2023-02-01T07:23:23;8.48;;;1.90;;
72791;SDS011;60907;53.268;8.764;2023-02-01T07:25:52;18.58;;;2.50;;
72791;SDS011;60907;53.268;8.764;2023-02-01T07:28:18;15.90;;;3.13;;
72791;SDS011;60907;53.268;8.764;2023-02-01T07:30:44;15.32;;;1.83;;
72791;SDS011;60907;53.268;8.764;2023-02-01T07:33:15;9.13;;;2.22;;
72791;SDS011;60907;53.268;8.764;2023-02-01T07:35:42;12.38;;;1.85;;
72791;SDS011;60907;53.268;8.764;2023-02-01T07:38:07;12.50;;;2.17;;
72791;SDS011;60907;53.268;8.764;2023-02-01T07:40:33;11.93;;;2.05;;
72791;SDS011;60907;53.268;8.764;2023-02-01T07:42:58;17.40;;;2.58;;
72791;SDS011;60907;53.268;8.764;2023-02-01T07:45:24;12.18;;;2.30;;
72791;SDS011;60907;53.268;8.764;2023-02-01T07:47:51;15.13;;;2.45;;
72791;SDS011;60907;53.268;8.764;2023-02-01T07:50:18;15.13;;;2.38;;
72791;SDS011;60907;53.268;8.764;2023-02-01T07:52:43;16.33;;;2.78;;
72791;SDS011;60907;53.268;8.764;2023-02-01T07:55:09;14.40;;;2.13;;
72791;SDS011;60907;53.268;8.764;2023-02-01T07:57:34;13.95;;;2.42;;
72791;SDS011;60907;53.268;8.764;2023-02-01T08:00:00;11.30;;;1.98;;
72791;SDS011;60907;53.268;8.764;2023-02-01T08:02:43;13.35;;;2.72;;
72791;SDS011;60907;53.268;8.764;2023-02-01T08:05:09;8.60;;;2.17;;
72791;SDS011;60907;53.268;8.764;2023-02-01T08:07:34;16.25;;;2.33;;
72791;SDS011;60907;53.268;8.764;2023-02-01T08:10:00;19.75;;;2.35;;
72791;SDS011;60907;53.268;8.764;2023-02-01T08:12:25;8.07;;;2.00;;
72791;SDS011;60907;53.268;8.764;2023-02-01T08:14:52;15.05;;;1.60;;
72791;SDS011;60907;53.268;8.764;2023-02-01T08:17:18;16.55;;;2.28;;
72791;SDS011;60907;53.268;8.764;2023-02-01T08:19:44;15.85;;;2.55;;
72791;SDS011;60907;53.268;8.764;2023-02-01T08:22:10;10.98;;;2.08;;
72791;SDS011;60907;53.268;8.764;2023-02-01T08:24:35;13.40;;;1.65;;
72791;SDS011;60907;53.268;8.764;2023-02-01T08:27:04;15.20;;;2.78;;
72791;SDS011;60907;53.268;8.764;2023-02-01T08:29:30;17.90;;;1.88;;
72791;SDS011;60907;53.268;8.764;2023-02-01T08:31:55;13.85;;;1.85;;
72791;SDS011;60907;53.268;8.764;2023-02-01T08:34:21;14.60;;;1.83;;
72791;SDS011;60907;53.268;8.764;2023-02-01T08:36:46;13.73;;;2.40;;
72791;SDS011;60907;53.268;8.764;2023-02-01T08:39:12;12.70;;;2.67;;
72791;SDS011;60907;53.268;8.764;2023-02-01T08:41:37;19.35;;;2.10;;
72791;SDS011;60907;53.268;8.764;2023-02-01T08:44:03;14.55;;;2.17;;
72791;SDS011;60907;53.268;8.764;2023-02-01T08:46:29;15.00;;;1.88;;
72791;SDS011;60907;53.268;8.764;2023-02-01T08:48:54;12.73;;;1.60;;
72791;SDS011;60907;53.268;8.764;2023-02-01T08:51:21;9.82;;;1.65;;
72791;SDS011;60907;53.268;8.764;2023-02-01T08:53:47;13.93;;;1.98;;
72791;SDS011;60907;53.268;8.764;2023-02-01T08:56:15;13.45;;;2.83;;
72791;SDS011;60907;53.268;8.764;2023-02-01T08:58:41;13.10;;;1.48;;
72791;SDS011;60907;53.268;8.764;2023-02-01T09:01:08;10.57;;;1.85;;
72791;SDS011;60907;53.268;8.764;2023-02-01T09:03:34;7.93;;;1.63;;
72791;SDS011;60907;53.268;8.764;2023-02-01T09:06:03;11.23;;;2.17;;
72791;SDS011;60907;53.268;8.764;2023-02-01T09:08:30;12.25;;;1.60;;
72791;SDS011;60907;53.268;8.764;2023-02-01T09:11:00;13.02;;;2.05;;
72791;SDS011;60907;53.268;8.764;2023-02-01T09:13:26;15.52;;;1.70;;
72791;SDS011;60907;53.268;8.764;2023-02-01T09:15:52;16.35;;;1.98;;
72791;SDS011;60907;53.268;8.764;2023-02-01T09:18:17;8.07;;;1.17;;
72791;SDS011;60907;53.268;8.764;2023-02-01T09:20:43;12.75;;;1.88;;
72791;SDS011;60907;53.268;8.764;2023-02-01T09:23:08;12.23;;;2.72;;
72791;SDS011;60907;53.268;8.764;2023-02-01T09:25:34;12.80;;;2.00;;
72791;SDS011;60907;53.268;8.764;2023-02-01T09:28:02;11.20;;;1.50;;
72791;SDS011;60907;53.268;8.764;2023-02-01T09:30:30;12.57;;;1.77;;
72791;SDS011;60907;53.268;8.764;2023-02-01T09:32:56;13.30;;;1.60;;
72791;SDS011;60907;53.268;8.764;2023-02-01T09:35:22;11.77;;;2.10;;
72791;SDS011;60907;53.268;8.764;2023-02-01T09:37:47;12.75;;;1.73;;
72791;SDS011;60907;53.268;8.764;2023-02-01T09:40:14;9.70;;;1.88;;
72791;SDS011;60907;53.268;8.764;2023-02-01T09:45:25;18.48;;;2.50;;
72791;SDS011;60907;53.268;8.764;2023-02-01T09:47:59;14.32;;;2.15;;
72791;SDS011;60907;53.268;8.764;2023-02-01T09:50:34;10.63;;;1.95;;
72791;SDS011;60907;53.268;8.764;2023-02-01T09:55:55;13.25;;;2.78;;
72791;SDS011;60907;53.268;8.764;2023-02-01T09:58:31;11.35;;;1.90;;
72791;SDS011;60907;53.268;8.764;2023-02-01T10:00:59;8.55;;;1.38;;
72791;SDS011;60907;53.268;8.764;2023-02-01T10:03:28;15.95;;;2.35;;
72791;SDS011;60907;53.268;8.764;2023-02-01T10:27:12;10.45;;;1.80;;
72791;SDS011;60907;53.268;8.764;2023-02-01T10:29:45;9.73;;;1.48;;
72791;SDS011;60907;53.268;8.764;2023-02-01T10:32:21;10.27;;;2.88;;
72791;SDS011;60907;53.268;8.764;2023-02-01T10:34:58;10.73;;;2.45;;
72791;SDS011;60907;53.268;8.764;2023-02-01T10:39:53;16.98;;;2.00;;
72791;SDS011;60907;53.268;8.764;2023-02-01T10:42:21;13.65;;;2.40;;
72791;SDS011;60907;53.268;8.764;2023-02-01T10:44:52;18.80;;;1.80;;
72791;SDS011;60907;53.268;8.764;2023-02-01T10:49:55;10.40;;;1.70;;
72791;SDS011;60907;53.268;8.764;2023-02-01T10:54:56;10.57;;;1.83;;
72791;SDS011;60907;53.268;8.764;2023-02-01T10:57:48;5.13;;;1.65;;
72791;SDS011;60907;53.268;8.764;2023-02-01T11:00:21;8.52;;;1.52;;
72791;SDS011;60907;53.268;8.764;2023-02-01T11:02:46;7.45;;;1.27;;
72791;SDS011;60907;53.268;8.764;2023-02-01T11:05:15;10.05;;;1.35;;
72791;SDS011;60907;53.268;8.764;2023-02-01T11:07:46;9.73;;;1.17;;
72791;SDS011;60907;53.268;8.764;2023-02-01T11:13:03;6.85;;;1.52;;
72791;SDS011;60907;53.268;8.764;2023-02-01T11:15:29;6.13;;;1.40;;
72791;SDS011;60907;53.268;8.764;2023-02-01T11:17:55;9.30;;;1.17;;
72791;SDS011;60907;53.268;8.764;2023-02-01T11:20:39;12.82;;;2.08;;
72791;SDS011;60907;53.268;8.764;2023-02-01T11:23:08;12.80;;;1.88;;
72791;SDS011;60907;53.268;8.764;2023-02-01T11:25:51;7.28;;;1.52;;
72791;SDS011;60907;53.268;8.764;2023-02-01T11:28:17;6.22;;;1.33;;
72791;SDS011;60907;53.268;8.764;2023-02-01T11:30:44;7.53;;;1.38;;
72791;SDS011;60907;53.268;8.764;2023-02-01T11:33:15;8.50;;;1.25;;
72791;SDS011;60907;53.268;8.764;2023-02-01T11:35:42;7.00;;;1.08;;
72791;SDS011;60907;53.268;8.764;2023-02-01T11:38:17;8.73;;;1.35;;
72791;SDS011;60907;53.268;8.764;2023-02-01T11:40:46;7.40;;;1.70;;
72791;SDS011;60907;53.268;8.764;2023-02-01T11:45:53;4.07;;;0.98;;
72791;SDS011;60907;53.268;8.764;2023-02-01T11:48:20;6.10;;;0.68;;
72791;SDS011;60907;53.268;8.764;2023-02-01T11:50:57;4.63;;;1.10;;
72791;SDS011;60907;53.268;8.764;2023-02-01T12:27:21;0.55;;;0.10;;
72791;SDS011;60907;53.268;8.764;2023-02-01T12:43:36;0.25;;;0.10;;
72791;SDS011;60907;53.268;8.764;2023-02-01T12:46:28;0.28;;;0.03;;
72791;SDS011;60907;53.268;8.764;2023-02-01T12:49:00;0.43;;;0.00;;
72791;SDS011;60907;53.268;8.764;2023-02-01T12:51:35;0.20;;;0.00;;
72791;SDS011;60907;53.268;8.764;2023-02-01T12:56:36;1.10;;;0.35;;
72791;SDS011;60907;53.268;8.764;2023-02-01T13:05:15;0.25;;;0.10;;
72791;SDS011;60907;53.268;8.764;2023-02-01T13:12:59;2.33;;;0.32;;
72791;SDS011;60907;53.268;8.764;2023-02-01T13:15:42;1.75;;;0.25;;
72791;SDS011;60907;53.268;8.764;2023-02-01T13:18:13;0.20;;;0.15;;
72791;SDS011;60907;53.268;8.764;2023-02-01T13:23:23;3.08;;;0.40;;
72791;SDS011;60907;53.268;8.764;2023-02-01T13:25:52;1.17;;;0.40;;
72791;SDS011;60907;53.268;8.764;2023-02-01T13:28:28;1.30;;;0.20;;
72791;SDS011;60907;53.268;8.764;2023-02-01T13:39:41;2.85;;;0.38;;
72791;SDS011;60907;53.268;8.764;2023-02-01T13:44:51;4.68;;;0.50;;
72791;SDS011;60907;53.268;8.764;2023-02-01T13:47:23;1.45;;;0.40;;
72791;SDS011;60907;53.268;8.764;2023-02-01T13:49:58;3.00;;;0.30;;
72791;SDS011;60907;53.268;8.764;2023-02-01T13:52:35;0.85;;;0.30;;
72791;SDS011;60907;53.268;8.764;2023-02-01T13:55:49;5.18;;;0.50;;
72791;SDS011;60907;53.268;8.764;2023-02-01T13:57:52;3.38;;;0.45;;
72791;SDS011;60907;53.268;8.764;2023-02-01T14:13:34;3.53;;;0.50;;
72791;SDS011;60907;53.268;8.764;2023-02-01T14:31:52;6.43;;;1.17;;
72791;SDS011;60907;53.268;8.764;2023-02-01T14:44:55;8.25;;;0.77;;
72791;SDS011;60907;53.268;8.764;2023-02-01T14:47:41;7.88;;;1.25;;
72791;SDS011;60907;53.268;8.764;2023-02-01T14:52:34;7.77;;;1.40;;
72791;SDS011;60907;53.268;8.764;2023-02-01T14:55:05;11.10;;;1.50;;
72791;SDS011;60907;53.268;8.764;2023-02-01T14:57:34;8.95;;;1.40;;
72791;SDS011;60907;53.268;8.764;2023-02-01T15:00:14;12.25;;;1.90;;
72791;SDS011;60907;53.268;8.764;2023-02-01T15:02:43;12.02;;;1.65;;
72791;SDS011;60907;53.268;8.764;2023-02-01T15:05:22;11.40;;;1.73;;
72791;SDS011;60907;53.268;8.764;2023-02-01T15:07:51;10.07;;;1.55;;
72791;SDS011;60907;53.268;8.764;2023-02-01T15:10:17;12.43;;;1.63;;
72791;SDS011;60907;53.268;8.764;2023-02-01T15:12:42;8.40;;;1.33;;
72791;SDS011;60907;53.268;8.764;2023-02-01T15:17:56;11.45;;;1.38;;
72791;SDS011;60907;53.268;8.764;2023-02-01T15:20:28;10.38;;;1.45;;
72791;SDS011;60907;53.268;8.764;2023-02-01T15:22:57;10.65;;;1.67;;
72791;SDS011;60907;53.268;8.764;2023-02-01T15:25:25;10.40;;;2.05;;
72791;SDS011;60907;53.268;8.764;2023-02-01T15:27:55;5.45;;;0.90;;
72791;SDS011;60907;53.268;8.764;2023-02-01T15:30:26;7.60;;;1.45;;
72791;SDS011;60907;53.268;8.764;2023-02-01T15:33:03;6.10;;;0.70;;
72791;SDS011;60907;53.268;8.764;2023-02-01T15:41:32;7.93;;;0.88;;
72791;SDS011;60907;53.268;8.764;2023-02-01T15:44:26;6.13;;;0.70;;
72791;SDS011;60907;53.268;8.764;2023-02-01T15:46:38;9.75;;;1.15;;
72791;SDS011;60907;53.268;8.764;2023-02-01T15:49:05;8.90;;;1.08;;
72791;SDS011;60907;53.268;8.764;2023-02-01T15:51:51;2.83;;;0.70;;
72791;SDS011;60907;53.268;8.764;2023-02-01T15:54:18;12.40;;;1.50;;
72791;SDS011;60907;53.268;8.764;2023-02-01T15:56:49;13.35;;;1.42;;
72791;SDS011;60907;53.268;8.764;2023-02-01T15:59:18;11.05;;;1.27;;
72791;SDS011;60907;53.268;8.764;2023-02-01T16:01:44;14.50;;;2.35;;
72791;SDS011;60907;53.268;8.764;2023-02-01T16:06:53;10.45;;;1.73;;
72791;SDS011;60907;53.268;8.764;2023-02-01T16:09:20;14.35;;;1.85;;
72791;SDS011;60907;53.268;8.764;2023-02-01T16:14:22;12.13;;;1.55;;
72791;SDS011;60907;53.268;8.764;2023-02-01T16:16:48;15.27;;;2.33;;
72791;SDS011;60907;53.268;8.764;2023-02-01T16:19:13;9.52;;;1.48;;
72791;SDS011;60907;53.268;8.764;2023-02-01T16:21:38;19.10;;;1.50;;
72791;SDS011;60907;53.268;8.764;2023-02-01T16:24:04;9.35;;;1.80;;
72791;SDS011;60907;53.268;8.764;2023-02-01T16:26:30;6.28;;;0.75;;
72791;SDS011;60907;53.268;8.764;2023-02-01T16:28:57;10.68;;;1.38;;
72791;SDS011;60907;53.268;8.764;2023-02-01T16:31:25;5.75;;;1.33;;
72791;SDS011;60907;53.268;8.764;2023-02-01T16:33:53;6.57;;;1.38;;
72791;SDS011;60907;53.268;8.764;2023-02-01T16:36:18;8.32;;;0.80;;
72791;SDS011;60907;53.268;8.764;2023-02-01T16:38:44;9.73;;;1.17;;
72791;SDS011;60907;53.268;8.764;2023-02-01T16:41:15;10.13;;;1.45;;
72791;SDS011;60907;53.268;8.764;2023-02-01T16:43:43;9.75;;;2.05;;
72791;SDS011;60907;53.268;8.764;2023-02-01T16:46:16;7.55;;;0.70;;
72791;SDS011;60907;53.268;8.764;2023-02-01T16:48:46;8.07;;;1.13;;
72791;SDS011;60907;53.268;8.764;2023-02-01T16:51:15;8.43;;;1.30;;
72791;SDS011;60907;53.268;8.764;2023-02-01T16:53:41;7.97;;;1.50;;
72791;SDS011;60907;53.268;8.764;2023-02-01T16:58:40;6.38;;;0.88;;
72791;SDS011;60907;53.268;8.764;2023-02-01T17:01:08;8.70;;;2.05;;
72791;SDS011;60907;53.268;8.764;2023-02-01T17:03:34;12.55;;;2.10;;
72791;SDS011;60907;53.268;8.764;2023-02-01T17:06:00;5.78;;;1.45;;
72791;SDS011;60907;53.268;8.764;2023-02-01T17:08:31;8.93;;;1.15;;
72791;SDS011;60907;53.268;8.764;2023-02-01T17:10:58;7.07;;;1.00;;
72791;SDS011;60907;53.268;8.764;2023-02-01T17:13:24;9.60;;;1.20;;
72791;SDS011;60907;53.268;8.764;2023-02-01T17:15:54;9.60;;;0.88;;
72791;SDS011;60907;53.268;8.764;2023-02-01T17:18:22;10.35;;;1.73;;
72791;SDS011;60907;53.268;8.764;2023-02-01T17:20:49;8.77;;;1.33;;
72791;SDS011;60907;53.268;8.764;2023-02-01T17:23:17;9.45;;;1.35;;
72791;SDS011;60907;53.268;8.764;2023-02-01T17:25:43;8.90;;;1.20;;
72791;SDS011;60907;53.268;8.764;2023-02-01T17:28:09;9.90;;;1.65;;
72791;SDS011;60907;53.268;8.764;2023-02-01T17:30:34;10.60;;;1.58;;
72791;SDS011;60907;53.268;8.764;2023-02-01T17:33:00;10.45;;;1.88;;
72791;SDS011;60907;53.268;8.764;2023-02-01T17:35:27;8.70;;;1.67;;
72791;SDS011;60907;53.268;8.764;2023-02-01T17:37:53;8.43;;;1.23;;
72791;SDS011;60907;53.268;8.764;2023-02-01T17:40:19;11.88;;;1.48;;
72791;SDS011;60907;53.268;8.764;2023-02-01T17:42:44;11.68;;;1.45;;
72791;SDS011;60907;53.268;8.764;2023-02-01T17:48:05;8.73;;;1.73;;
72791;SDS011;60907;53.268;8.764;2023-02-01T17:50:33;6.05;;;1.15;;
72791;SDS011;60907;53.268;8.764;2023-02-01T17:53:00;10.38;;;1.58;;
72791;SDS011;60907;53.268;8.764;2023-02-01T17:55:27;13.45;;;1.17;;
72791;SDS011;60907;53.268;8.764;2023-02-01T17:57:53;6.75;;;1.70;;
72791;SDS011;60907;53.268;8.764;2023-02-01T18:00:19;12.57;;;1.45;;
72791;SDS011;60907;53.268;8.764;2023-02-01T18:02:45;10.57;;;2.15;;
72791;SDS011;60907;53.268;8.764;2023-02-01T18:08:05;11.52;;;2.00;;
72791;SDS011;60907;53.268;8.764;2023-02-01T18:10:31;14.90;;;2.03;;
72791;SDS011;60907;53.268;8.764;2023-02-01T18:12:57;8.23;;;1.20;;
72791;SDS011;60907;53.268;8.764;2023-02-01T18:15:23;7.70;;;1.38;;
72791;SDS011;60907;53.268;8.764;2023-02-01T18:17:50;18.15;;;2.20;;
72791;SDS011;60907;53.268;8.764;2023-02-01T18:20:16;8.43;;;1.50;;
72791;SDS011;60907;53.268;8.764;2023-02-01T18:22:44;20.92;;;2.38;;
72791;SDS011;60907;53.268;8.764;2023-02-01T18:25:26;9.88;;;1.63;;
72791;SDS011;60907;53.268;8.764;2023-02-01T18:27:54;7.38;;;1.08;;
72791;SDS011;60907;53.268;8.764;2023-02-01T18:30:21;16.42;;;2.00;;
72791;SDS011;60907;53.268;8.764;2023-02-01T18:32:48;7.45;;;1.45;;
72791;SDS011;60907;53.268;8.764;2023-02-01T18:35:15;15.23;;;1.88;;